createdAt,value
2018-10-07T00:02:18.241Z,23.80
2018-10-07T00:04:58.884Z,23.80
2018-10-07T00:07:40.283Z,23.80
2018-10-07T00:10:21.256Z,23.80
2018-10-07T00:13:02.300Z,23.80
2018-10-07T00:15:43.743Z,23.80
2018-10-07T00:18:24.239Z,23.80
2018-10-07T00:21:04.741Z,23.80
2018-10-07T00:23:45.339Z,23.90
2018-10-07T00:26:25.931Z,23.90
2018-10-07T00:29:07.283Z,23.90
2018-10-07T00:31:53.001Z,23.90
2018-10-07T00:34:34.421Z,23.90
2018-10-07T00:37:14.931Z,23.90
2018-10-07T00:39:55.547Z,23.80
2018-10-07T00:42:36.215Z,23.80
2018-10-07T00:45:17.551Z,23.80
2018-10-07T00:47:58.047Z,23.80
2018-10-07T00:50:38.632Z,23.80
2018-10-07T00:53:19.969Z,23.70
2018-10-07T00:56:00.546Z,23.60
2018-10-07T00:58:41.127Z,23.50
2018-10-07T01:01:21.755Z,23.50
2018-10-07T01:04:02.227Z,23.40
2018-10-07T01:06:43.019Z,23.30
2018-10-07T01:09:24.356Z,23.30
2018-10-07T01:12:04.807Z,23.20
2018-10-07T01:14:45.296Z,23.20
2018-10-07T01:17:25.809Z,23.10
2018-10-07T01:20:06.324Z,23.10
2018-10-07T01:22:47.103Z,23.00
2018-10-07T01:25:28.563Z,23.10
2018-10-07T01:28:09.058Z,23.00
2018-10-07T01:30:49.580Z,23.10
2018-10-07T01:33:30.907Z,23.00
2018-10-07T01:36:11.531Z,23.00
2018-10-07T01:38:52.875Z,23.00
2018-10-07T01:41:34.390Z,23.10
2018-10-07T01:44:15.775Z,23.20
2018-10-07T01:46:56.248Z,23.20
2018-10-07T01:49:36.824Z,23.20
2018-10-07T01:52:18.284Z,23.30
2018-10-07T01:54:58.832Z,23.30
2018-10-07T01:57:39.386Z,23.40
2018-10-07T02:00:20.859Z,23.40
2018-10-07T02:03:02.203Z,23.50
2018-10-07T02:05:43.567Z,23.50
2018-10-07T02:08:24.070Z,23.40
2018-10-07T02:11:04.552Z,23.40
2018-10-07T02:13:45.976Z,23.40
2018-10-07T02:16:27.439Z,23.40
2018-10-07T02:19:08.796Z,23.30
2018-10-07T02:21:49.351Z,23.30
2018-10-07T02:24:30.768Z,23.30
2018-10-07T02:27:11.431Z,23.30
2018-10-07T02:29:53.376Z,23.30
2018-10-07T02:32:34.318Z,23.20
2018-10-07T02:35:15.779Z,23.20
2018-10-07T02:37:56.264Z,23.20
2018-10-07T02:40:36.725Z,23.20
2018-10-07T02:43:17.232Z,23.20
2018-10-07T02:45:57.763Z,23.20
2018-10-07T02:48:38.317Z,23.20
2018-10-07T02:51:19.736Z,23.20
2018-10-07T02:54:01.212Z,23.20
2018-10-07T02:56:42.696Z,23.20
2018-10-07T02:59:24.241Z,23.20
2018-10-07T03:02:05.583Z,23.00
2018-10-07T03:04:47.063Z,23.00
2018-10-07T03:07:28.399Z,23.00
2018-10-07T03:10:09.944Z,23.00
2018-10-07T03:12:51.233Z,23.00
2018-10-07T03:15:31.856Z,22.90
2018-10-07T03:18:13.995Z,22.80
2018-10-07T03:20:54.825Z,22.80
2018-10-07T03:23:35.387Z,22.70
2018-10-07T03:26:16.745Z,22.70
2018-10-07T03:28:57.519Z,22.60
2018-10-07T03:31:38.876Z,22.50
2018-10-07T03:34:20.203Z,22.40
2018-10-07T03:37:00.682Z,22.30
2018-10-07T03:39:42.128Z,22.20
2018-10-07T03:42:23.474Z,22.20
2018-10-07T03:45:03.979Z,22.10
2018-10-07T03:47:45.421Z,22.00
2018-10-07T03:50:26.843Z,22.00
2018-10-07T03:53:08.259Z,21.90
2018-10-07T03:55:49.741Z,21.90
2018-10-07T03:58:30.407Z,21.90
2018-10-07T04:01:11.867Z,21.90
2018-10-07T04:03:53.274Z,21.90
2018-10-07T04:06:33.792Z,21.90
2018-10-07T04:09:15.155Z,21.90
2018-10-07T04:11:55.812Z,21.80
2018-10-07T04:14:37.168Z,21.80
2018-10-07T04:17:18.665Z,21.80
2018-10-07T04:20:00.318Z,21.70
2018-10-07T04:22:41.668Z,21.70
2018-10-07T04:25:22.284Z,21.70
2018-10-07T04:28:03.660Z,21.60
2018-10-07T04:30:44.650Z,21.60
2018-10-07T04:33:25.634Z,21.60
2018-10-07T04:36:06.847Z,21.60
2018-10-07T04:38:47.552Z,21.60
2018-10-07T04:41:28.157Z,21.50
2018-10-07T04:44:08.825Z,21.50
2018-10-07T04:46:50.157Z,21.40
2018-10-07T04:49:30.675Z,21.40
2018-10-07T04:52:11.996Z,21.40
2018-10-07T04:54:52.475Z,21.40
2018-10-07T04:57:33.848Z,21.30
2018-10-07T05:00:15.256Z,21.30
2018-10-07T05:02:56.610Z,21.20
2018-10-07T05:05:37.072Z,21.30
2018-10-07T05:08:17.668Z,21.30
2018-10-07T05:11:01.710Z,21.20
2018-10-07T05:13:42.621Z,21.20
2018-10-07T05:16:24.115Z,21.10
2018-10-07T05:19:04.580Z,21.10
2018-10-07T05:21:45.095Z,21.00
2018-10-07T05:24:26.491Z,21.00
2018-10-07T05:27:07.828Z,21.00
2018-10-07T05:29:48.339Z,20.90
2018-10-07T05:32:28.823Z,21.00
2018-10-07T05:35:10.230Z,20.90
2018-10-07T05:37:50.739Z,20.70
2018-10-07T05:40:32.568Z,20.70
2018-10-07T05:43:13.556Z,20.60
2018-10-07T05:45:54.916Z,20.60
2018-10-07T05:48:36.308Z,20.50
2018-10-07T05:51:16.855Z,20.50
2018-10-07T05:53:58.315Z,20.50
2018-10-07T05:56:38.967Z,20.50
2018-10-07T05:59:19.588Z,20.40
2018-10-07T06:02:00.435Z,20.40
2018-10-07T06:04:41.310Z,20.30
2018-10-07T06:07:23.056Z,20.20
2018-10-07T06:10:03.983Z,20.10
2018-10-07T06:12:44.543Z,20.00
2018-10-07T06:15:25.112Z,19.90
2018-10-07T06:18:05.727Z,19.90
2018-10-07T06:20:46.995Z,19.80
2018-10-07T06:23:27.569Z,19.90
2018-10-07T06:26:08.148Z,19.90
2018-10-07T06:28:48.621Z,19.90
2018-10-07T06:31:29.266Z,19.90
2018-10-07T06:34:09.812Z,19.90
2018-10-07T06:36:50.367Z,19.80
2018-10-07T06:39:30.876Z,19.70
2018-10-07T06:42:11.416Z,19.70
2018-10-07T06:44:51.995Z,19.60
2018-10-07T06:47:32.453Z,19.60
2018-10-07T06:50:12.944Z,19.70
2018-10-07T06:52:53.491Z,19.70
2018-10-07T06:55:34.093Z,19.60
2018-10-07T06:58:14.671Z,19.60
2018-10-07T07:00:55.158Z,19.50
2018-10-07T07:03:36.578Z,19.50
2018-10-07T07:06:18.061Z,19.40
2018-10-07T07:08:58.667Z,19.30
2018-10-07T07:11:40.152Z,19.20
2018-10-07T07:14:21.515Z,19.20
2018-10-07T07:17:02.115Z,19.10
2018-10-07T07:19:42.893Z,19.00
2018-10-07T07:22:24.211Z,19.00
2018-10-07T07:25:04.715Z,19.00
2018-10-07T07:27:45.341Z,19.00
2018-10-07T07:30:26.076Z,18.90
2018-10-07T07:33:07.565Z,18.70
2018-10-07T07:35:48.376Z,18.50
2018-10-07T07:38:28.957Z,18.50
2018-10-07T07:41:10.511Z,18.40
2018-10-07T07:43:51.035Z,18.30
2018-10-07T07:46:31.576Z,18.20
2018-10-07T07:49:12.148Z,18.10
2018-10-07T07:51:52.686Z,18.00
2018-10-07T07:54:33.383Z,17.80
2018-10-07T07:57:13.828Z,17.60
2018-10-07T07:59:54.500Z,17.50
2018-10-07T08:02:35.963Z,17.50
2018-10-07T08:05:16.512Z,17.40
2018-10-07T08:07:57.120Z,17.40
2018-10-07T08:10:37.763Z,17.50
2018-10-07T08:13:18.256Z,17.50
2018-10-07T08:15:58.853Z,17.50
2018-10-07T08:18:40.299Z,17.40
2018-10-07T08:21:20.919Z,17.50
2018-10-07T08:24:01.417Z,17.60
2018-10-07T08:26:42.151Z,17.60
2018-10-07T08:29:22.726Z,17.70
2018-10-07T08:32:03.216Z,17.80
2018-10-07T08:34:43.780Z,17.90
2018-10-07T08:37:24.286Z,18.00
2018-10-07T08:40:05.592Z,18.10
2018-10-07T08:42:46.056Z,18.20
2018-10-07T08:45:26.555Z,18.20
2018-10-07T08:48:07.167Z,18.30
2018-10-07T08:50:47.879Z,18.40
2018-10-07T08:53:28.446Z,18.50
2018-10-07T08:56:09.169Z,18.60
2018-10-07T08:58:50.536Z,18.60
2018-10-07T09:01:31.155Z,18.70
2018-10-07T09:04:12.750Z,18.80
2018-10-07T09:06:53.232Z,18.90
2018-10-07T09:09:33.863Z,18.90
2018-10-07T09:12:14.415Z,19.00
2018-10-07T09:14:55.820Z,19.00
2018-10-07T09:17:36.404Z,19.00
2018-10-07T09:20:17.038Z,19.00
2018-10-07T09:22:57.571Z,19.00
2018-10-07T09:25:38.480Z,19.10
2018-10-07T09:28:19.550Z,19.20
2018-10-07T09:31:00.170Z,19.30
2018-10-07T09:33:40.657Z,19.30
2018-10-07T09:36:21.240Z,19.30
2018-10-07T09:39:01.927Z,19.40
2018-10-07T09:41:44.277Z,19.40
2018-10-07T09:44:25.008Z,19.50
2018-10-07T09:47:05.587Z,19.50
2018-10-07T09:49:46.551Z,19.50
2018-10-07T09:52:27.713Z,19.50
2018-10-07T09:55:08.204Z,19.50
2018-10-07T09:57:48.862Z,19.60
2018-10-07T10:00:44.588Z,19.70
2018-10-07T10:03:25.907Z,19.70
2018-10-07T10:06:06.375Z,19.80
2018-10-07T10:08:48.391Z,19.80
2018-10-07T10:11:30.059Z,19.90
2018-10-07T10:14:10.996Z,20.00
2018-10-07T10:16:51.468Z,20.10
2018-10-07T10:19:32.225Z,20.10
2018-10-07T10:22:13.475Z,20.10
2018-10-07T10:24:54.067Z,20.10
2018-10-07T10:27:34.672Z,20.00
2018-10-07T10:30:16.207Z,20.00
2018-10-07T10:32:57.699Z,20.00
2018-10-07T10:35:39.275Z,20.00
2018-10-07T10:38:21.233Z,20.10
2018-10-07T10:41:02.167Z,20.20
2018-10-07T10:43:42.771Z,20.50
2018-10-07T10:46:24.336Z,20.70
2018-10-07T10:49:05.816Z,20.80
2018-10-07T10:51:47.324Z,21.00
2018-10-07T10:54:29.220Z,21.10
2018-10-07T10:57:11.019Z,21.30
2018-10-07T10:59:52.038Z,21.40
2018-10-07T11:02:33.931Z,21.50
2018-10-07T11:05:14.683Z,21.60
2018-10-07T11:07:55.367Z,21.60
2018-10-07T11:10:36.519Z,21.50
2018-10-07T11:13:18.780Z,21.40
2018-10-07T11:15:59.428Z,21.30
2018-10-07T11:18:40.949Z,21.20
2018-10-07T11:21:22.411Z,21.30
2018-10-07T11:24:03.316Z,21.30
2018-10-07T11:26:44.548Z,21.30
2018-10-07T11:29:25.276Z,21.30
2018-10-07T11:32:06.741Z,21.30
2018-10-07T11:34:48.297Z,21.40
2018-10-07T11:37:29.696Z,21.50
2018-10-07T11:40:10.883Z,21.50
2018-10-07T11:42:52.867Z,21.50
2018-10-07T11:45:34.601Z,21.50
2018-10-07T11:48:15.774Z,21.50
2018-10-07T11:50:57.142Z,21.40
2018-10-07T11:53:37.821Z,21.30
2018-10-07T11:56:19.139Z,21.10
2018-10-07T11:58:59.807Z,20.90
2018-10-07T12:01:41.428Z,20.60
2018-10-07T12:04:22.928Z,20.50
2018-10-07T12:07:03.372Z,20.50
2018-10-07T12:09:43.936Z,20.40
2018-10-07T12:12:24.563Z,20.40
2018-10-07T12:15:05.975Z,20.50
2018-10-07T12:17:46.705Z,20.70
2018-10-07T12:20:28.112Z,21.00
2018-10-07T12:23:09.527Z,21.30
2018-10-07T12:25:50.983Z,21.70
2018-10-07T12:28:32.279Z,21.90
2018-10-07T12:31:13.211Z,21.90
2018-10-07T12:33:53.727Z,22.00
2018-10-07T12:36:34.451Z,22.20
2018-10-07T12:39:16.034Z,22.30
2018-10-07T12:41:56.589Z,22.30
2018-10-07T12:44:37.172Z,22.50
2018-10-07T12:47:18.628Z,22.60
2018-10-07T12:49:59.206Z,22.70
2018-10-07T12:52:40.744Z,22.80
2018-10-07T12:55:21.423Z,22.90
2018-10-07T12:58:02.663Z,23.00
2018-10-07T13:00:43.227Z,23.10
2018-10-07T13:03:23.992Z,23.10
2018-10-07T13:06:05.587Z,23.10
2018-10-07T13:08:47.016Z,23.20
2018-10-07T13:11:31.141Z,23.20
2018-10-07T13:14:12.323Z,23.20
2018-10-07T13:16:53.756Z,23.20
2018-10-07T13:19:35.168Z,23.20
2018-10-07T13:22:15.915Z,23.30
2018-10-07T13:24:57.351Z,23.40
2018-10-07T13:27:38.056Z,23.40
2018-10-07T13:30:18.884Z,23.30
2018-10-07T13:33:00.251Z,23.20
2018-10-07T13:35:40.728Z,23.10
2018-10-07T13:38:21.188Z,23.00
2018-10-07T13:41:01.691Z,22.90
2018-10-07T13:43:42.439Z,22.90
2018-10-07T13:46:23.851Z,22.80
2018-10-07T13:49:05.217Z,22.70
2018-10-07T13:51:46.323Z,22.60
2018-10-07T13:54:27.854Z,22.70
2018-10-07T13:57:09.395Z,22.70
2018-10-07T13:59:51.007Z,22.80
2018-10-07T14:02:32.493Z,22.80
2018-10-07T14:05:13.993Z,22.80
2018-10-07T14:07:56.093Z,22.80
2018-10-07T14:10:37.044Z,22.70
2018-10-07T14:13:18.620Z,22.80
2018-10-07T14:16:00.076Z,22.80
2018-10-07T14:18:41.259Z,22.80
2018-10-07T14:21:21.919Z,22.80
2018-10-07T14:24:03.571Z,22.70
2018-10-07T14:26:45.060Z,22.70
2018-10-07T14:29:26.692Z,22.70
2018-10-07T14:32:07.172Z,22.70
2018-10-07T14:34:47.663Z,22.60
2018-10-07T14:37:28.540Z,22.60
2018-10-07T14:40:09.968Z,22.60
2018-10-07T14:42:50.506Z,22.40
2018-10-07T14:45:30.999Z,22.40
2018-10-07T14:48:11.744Z,22.30
2018-10-07T14:50:53.155Z,22.20
2018-10-07T14:53:33.863Z,22.10
2018-10-07T14:56:14.317Z,22.10
2018-10-07T14:58:55.860Z,22.20
2018-10-07T15:01:36.975Z,22.20
2018-10-07T15:04:17.903Z,22.20
2018-10-07T15:06:58.503Z,22.20
2018-10-07T15:09:39.389Z,22.20
2018-10-07T15:12:20.836Z,22.20
2018-10-07T15:15:02.211Z,22.20
2018-10-07T15:17:42.858Z,22.20
2018-10-07T15:20:24.415Z,22.20
2018-10-07T15:23:05.911Z,22.20
2018-10-07T15:25:47.192Z,22.10
2018-10-07T15:28:27.902Z,22.10
2018-10-07T15:31:09.256Z,22.00
2018-10-07T15:33:49.758Z,22.00
2018-10-07T15:36:30.312Z,21.90
2018-10-07T15:39:10.919Z,21.80
2018-10-07T15:41:51.956Z,21.70
2018-10-07T15:44:34.119Z,21.70
2018-10-07T15:47:15.133Z,21.70
2018-10-07T15:49:56.164Z,21.60
2018-10-07T15:52:36.843Z,21.50
2018-10-07T15:55:18.180Z,21.50
2018-10-07T15:57:59.079Z,21.50
2018-10-07T16:00:41.183Z,21.40
2018-10-07T16:03:21.756Z,21.30
2018-10-07T16:06:02.434Z,21.30
2018-10-07T16:08:44.114Z,21.20
2018-10-07T16:11:25.663Z,21.20
2018-10-07T16:14:06.983Z,21.10
2018-10-07T16:16:47.479Z,21.10
2018-10-07T16:19:28.269Z,21.00
2018-10-07T16:22:09.832Z,21.00
2018-10-07T16:24:51.003Z,21.00
2018-10-07T16:27:31.507Z,21.00
2018-10-07T16:30:12.969Z,21.00
2018-10-07T16:32:53.773Z,21.00
2018-10-07T16:35:36.080Z,21.00
2018-10-07T16:38:17.469Z,21.00
2018-10-07T16:40:57.892Z,21.00
2018-10-07T16:43:38.776Z,20.90
2018-10-07T16:46:20.313Z,20.90
2018-10-07T16:49:01.176Z,20.90
2018-10-07T16:51:42.012Z,20.80
2018-10-07T16:54:23.327Z,20.80
2018-10-07T16:57:04.373Z,20.80
2018-10-07T16:59:45.787Z,20.80
2018-10-07T17:02:26.952Z,20.80
2018-10-07T17:05:07.607Z,20.80
2018-10-07T17:07:48.122Z,20.90
2018-10-07T17:10:29.515Z,20.80
2018-10-07T17:13:10.387Z,20.80
2018-10-07T17:15:51.611Z,20.90
2018-10-07T17:18:33.011Z,20.90
2018-10-07T17:21:13.708Z,20.80
2018-10-07T17:23:55.451Z,20.80
2018-10-07T17:26:37.339Z,20.80
2018-10-07T17:29:18.118Z,20.80
2018-10-07T17:32:00.119Z,20.70
2018-10-07T17:34:41.044Z,20.70
2018-10-07T17:37:21.831Z,20.70
2018-10-07T17:40:03.356Z,20.70
2018-10-07T17:42:44.524Z,20.70
2018-10-07T17:45:25.367Z,20.60
2018-10-07T17:48:06.911Z,20.60
2018-10-07T17:50:48.480Z,20.60
2018-10-07T17:53:29.854Z,20.60
2018-10-07T17:56:11.331Z,20.60
2018-10-07T17:58:52.859Z,20.60
2018-10-07T18:01:33.556Z,20.70
2018-10-07T18:04:15.143Z,20.70
2018-10-07T18:06:56.719Z,20.70
2018-10-07T18:09:38.282Z,20.60
2018-10-07T18:12:19.380Z,20.70
2018-10-07T18:15:01.073Z,20.70
2018-10-07T18:17:42.818Z,20.70
2018-10-07T18:20:23.950Z,20.60
2018-10-07T18:23:04.499Z,20.70
2018-10-07T18:25:45.084Z,20.70
2018-10-07T18:28:26.484Z,20.70
2018-10-07T18:31:08.232Z,20.80
2018-10-07T18:33:49.663Z,20.80
2018-10-07T18:36:30.751Z,20.80
2018-10-07T18:39:11.779Z,20.80
2018-10-07T18:41:52.535Z,20.80
2018-10-07T18:44:33.808Z,20.80
2018-10-07T18:47:15.198Z,20.80
2018-10-07T18:49:56.083Z,20.90
2018-10-07T18:52:37.468Z,20.80
2018-10-07T18:55:18.236Z,20.80
2018-10-07T18:57:59.398Z,20.80
2018-10-07T19:00:39.883Z,20.80
2018-10-07T19:03:20.523Z,20.80
2018-10-07T19:06:01.498Z,20.70
2018-10-07T19:08:42.634Z,20.70
2018-10-07T19:11:23.180Z,20.70
2018-10-07T19:14:03.726Z,20.70
2018-10-07T19:16:45.475Z,20.80
2018-10-07T19:19:26.560Z,20.80
2018-10-07T19:22:08.800Z,20.80
2018-10-07T19:24:50.077Z,20.70
2018-10-07T19:27:31.389Z,20.80
2018-10-07T19:30:12.239Z,20.80
2018-10-07T19:32:53.622Z,20.80
2018-10-07T19:35:35.139Z,20.70
2018-10-07T19:38:17.224Z,20.80
2018-10-07T19:40:58.107Z,20.90
2018-10-07T19:43:39.479Z,20.90
2018-10-07T19:46:20.435Z,20.90
2018-10-07T19:49:01.773Z,21.00
2018-10-07T19:51:42.371Z,21.00
2018-10-07T19:54:23.640Z,21.00
2018-10-07T19:57:04.212Z,21.00
2018-10-07T19:59:45.861Z,21.10
2018-10-07T20:02:26.529Z,21.10
2018-10-07T20:05:07.114Z,21.10
2018-10-07T20:07:47.629Z,21.00
2018-10-07T20:10:28.164Z,20.90
2018-10-07T20:13:08.914Z,20.80
2018-10-07T20:15:50.231Z,20.50
2018-10-07T20:18:30.988Z,20.10
2018-10-07T20:21:12.448Z,19.80
2018-10-07T20:23:53.823Z,19.60
2018-10-07T20:26:34.524Z,19.40
2018-10-07T20:29:15.209Z,19.30
2018-10-07T20:31:56.418Z,19.20
2018-10-07T20:34:38.308Z,19.10
2018-10-07T20:37:19.674Z,19.10
2018-10-07T20:40:00.487Z,19.00
2018-10-07T20:42:41.996Z,19.00
2018-10-07T20:45:23.426Z,19.00
2018-10-07T20:48:04.596Z,19.00
2018-10-07T20:50:45.163Z,18.90
2018-10-07T20:53:25.700Z,18.90
2018-10-07T20:56:07.279Z,18.80
2018-10-07T20:58:48.623Z,18.70
2018-10-07T21:01:29.264Z,18.70
2018-10-07T21:04:10.687Z,18.70
2018-10-07T21:06:52.334Z,18.60
2018-10-07T21:09:33.771Z,18.60
2018-10-07T21:12:15.083Z,18.50
2018-10-07T21:14:56.360Z,18.40
2018-10-07T21:17:37.152Z,18.50
2018-10-07T21:20:18.514Z,18.50
2018-10-07T21:22:58.980Z,18.40
2018-10-07T21:25:39.447Z,18.50
2018-10-07T21:28:20.039Z,18.50
2018-10-07T21:31:00.777Z,18.50
2018-10-07T21:33:41.443Z,18.40
2018-10-07T21:36:22.952Z,18.30
2018-10-07T21:39:05.231Z,18.30
2018-10-07T21:41:46.417Z,18.20
2018-10-07T21:44:28.002Z,18.30
2018-10-07T21:47:09.428Z,18.20
2018-10-07T21:49:50.835Z,18.30
2018-10-07T21:52:32.422Z,18.40
2018-10-07T21:55:13.772Z,18.40
2018-10-07T21:57:54.446Z,18.40
2018-10-07T22:00:35.944Z,18.40
2018-10-07T22:03:16.707Z,18.50
2018-10-07T22:05:57.303Z,18.50
2018-10-07T22:08:38.755Z,18.50
2018-10-07T22:11:19.375Z,18.40
2018-10-07T22:14:00.013Z,18.30
2018-10-07T22:16:41.515Z,18.10
2018-10-07T22:19:22.034Z,18.00
2018-10-07T22:22:02.627Z,18.00
2018-10-07T22:24:44.227Z,18.00
2018-10-07T22:27:25.511Z,18.00
2018-10-07T22:30:06.144Z,18.00
2018-10-07T22:32:47.615Z,18.00
2018-10-07T22:35:28.311Z,18.00
2018-10-07T22:38:09.068Z,18.10
2018-10-07T22:40:49.647Z,18.10
2018-10-07T22:43:31.127Z,18.10
2018-10-07T22:46:11.732Z,18.20
2018-10-07T22:48:52.245Z,18.10
2018-10-07T22:51:32.688Z,18.10
2018-10-07T22:54:13.382Z,18.20
2018-10-07T22:56:53.935Z,18.10
2018-10-07T22:59:34.571Z,18.10
2018-10-07T23:02:15.988Z,18.00
2018-10-07T23:04:56.543Z,18.00
2018-10-07T23:07:37.943Z,18.00
2018-10-07T23:10:18.440Z,17.90
2018-10-07T23:12:59.003Z,17.80
2018-10-07T23:15:39.452Z,17.80
2018-10-07T23:18:19.919Z,17.80
2018-10-07T23:21:00.580Z,17.80
2018-10-07T23:23:41.112Z,17.80
2018-10-07T23:26:21.755Z,17.80
2018-10-07T23:29:02.339Z,17.90
2018-10-07T23:31:42.923Z,17.90
2018-10-07T23:34:23.435Z,18.00
2018-10-07T23:37:03.914Z,17.90
2018-10-07T23:39:44.452Z,17.90
2018-10-07T23:42:24.937Z,17.90
2018-10-07T23:45:06.276Z,17.80
2018-10-07T23:47:47.042Z,17.70
2018-10-07T23:50:28.203Z,17.70
2018-10-07T23:53:08.745Z,17.70
2018-10-07T23:55:50.160Z,17.60
2018-10-07T23:58:30.785Z,17.60
